Galatia, New York
Current Conditions -  °F | °C
As of 3:15 PM on Wednesday 26 Nov 2014 (Local Time) from KN03 Reporting Station
Moderate Snow Moderate Snow  
Wind Chill:   Ceiling: 500
Heat Index:   Visibility: 1.2mi
Dew Point:   Wind: 3mph
Humidity: 100%   Direction: 10°N
Pressure: 30.02"   Gusts: NA
Location:  42.4596°N, 76.0658°W
Report Text: KN03 262015Z AUTO 01003KT 1 1/4SM SN OVC005 00/00 A3002 RMK AO2
Loading
Personal Weather Stations






























Interactive Weather Map New forecast layout! Learn more

10-Day Weather Forecast

Advertisements
Track Severe Weather on mobile